Time;durP1;ratioP1;P1;durP2;ratioP2;P2;SDS_P1;SDS_P2;PMS_P1;PMS_P2;Temp;Humidity;BMP_temperature;BMP_pressure;BME280_temperature;BME280_humidity;BME280_pressure;Samples;Min_cycle;Max_cycle;Signal;HPM_P1;HPM_P2
2022/03/14 00:01:49;;;;;;;15.80;10.77;;;10.30;57.20;;;;;;4915646;29;20044;-44
2022/03/14 00:04:15;;;;;;;19.02;12.70;;;10.30;57.30;;;;;;4915917;29;20099;-47
2022/03/14 00:06:40;;;;;;;16.27;11.38;;;10.40;57.30;;;;;;4915708;29;20111;-45
2022/03/14 00:09:07;;;;;;;15.63;11.50;;;10.30;57.40;;;;;;4915571;29;20032;-45
2022/03/14 00:11:35;;;;;;;20.58;12.00;;;10.40;57.40;;;;;;4913087;29;20059;-45
2022/03/14 00:14:04;;;;;;;20.27;13.27;;;10.40;57.30;;;;;;4915598;29;20024;-45
2022/03/14 00:16:40;;;;;;;20.02;12.70;;;10.40;57.50;;;;;;4915518;29;20080;-47
2022/03/14 00:19:06;;;;;;;20.10;12.23;;;10.40;57.50;;;;;;4915721;29;20027;-47
2022/03/14 00:21:38;;;;;;;17.05;11.43;;;10.30;57.50;;;;;;4915622;29;20020;-44
2022/03/14 00:24:03;;;;;;;19.77;12.43;;;10.30;57.70;;;;;;4915366;29;20391;-42
2022/03/14 00:26:30;;;;;;;17.83;12.68;;;10.20;57.80;;;;;;4915145;29;20024;-43
2022/03/14 00:28:55;;;;;;;14.95;11.48;;;10.30;57.60;;;;;;4915218;29;20063;-48
2022/03/14 00:31:21;;;;;;;17.33;11.43;;;10.30;57.70;;;;;;4915139;29;20464;-45
2022/03/14 00:33:48;;;;;;;14.13;11.05;;;10.20;57.90;;;;;;4915362;29;20055;-47
2022/03/14 00:36:13;;;;;;;20.20;11.95;;;10.20;58.70;;;;;;4912686;29;20115;-45
2022/03/14 00:38:39;;;;;;;17.45;11.85;;;10.20;58.80;;;;;;4915155;29;20102;-42
2022/03/14 00:41:06;;;;;;;16.55;11.68;;;10.30;59.60;;;;;;4915218;29;20520;-45
2022/03/14 00:43:33;;;;;;;17.55;11.63;;;10.30;59.30;;;;;;4916678;29;20024;-50
2022/03/14 00:45:58;;;;;;;21.52;12.57;;;10.30;59.70;;;;;;4915789;29;20035;-45
2022/03/14 00:48:24;;;;;;;19.83;12.98;;;10.20;60.00;;;;;;4914950;29;20399;-48
2022/03/14 00:50:50;;;;;;;19.65;12.35;;;10.10;60.30;;;;;;4915063;29;20042;-42
2022/03/14 00:53:16;;;;;;;16.45;11.35;;;10.00;60.40;;;;;;4915065;29;20028;-43
2022/03/14 00:55:42;;;;;;;18.60;13.25;;;10.00;60.70;;;;;;4914981;29;20024;-44
2022/03/14 00:58:07;;;;;;;16.05;11.23;;;10.00;60.90;;;;;;4914593;29;20028;-44
2022/03/14 01:00:34;;;;;;;12.90;10.85;;;10.00;61.00;;;;;;4914979;29;20028;-46
2022/03/14 01:02:59;;;;;;;15.55;11.02;;;10.00;61.10;;;;;;4915107;29;20032;-44
2022/03/14 01:05:26;;;;;;;16.95;11.60;;;10.00;61.00;;;;;;4914938;29;20476;-42
2022/03/14 01:07:51;;;;;;;23.08;11.85;;;10.00;60.90;;;;;;4914257;29;20024;-48
2022/03/14 01:10:18;;;;;;;16.35;11.90;;;10.00;60.60;;;;;;4914725;29;20032;-45
2022/03/14 01:12:43;;;;;;;18.23;12.63;;;9.90;60.60;;;;;;4916081;29;20493;-44
2022/03/14 01:15:09;;;;;;;15.55;11.57;;;9.90;60.80;;;;;;4918743;29;20032;-46
2022/03/14 01:17:36;;;;;;;18.52;12.68;;;9.90;61.20;;;;;;4917587;29;20420;-43
2022/03/14 01:20:04;;;;;;;15.57;11.60;;;9.80;61.00;;;;;;4918883;29;20440;-47
2022/03/14 01:22:29;;;;;;;17.08;11.82;;;9.90;60.70;;;;;;4918927;29;20024;-46
2022/03/14 01:24:55;;;;;;;17.60;11.48;;;9.90;60.60;;;;;;4918919;29;20034;-46
2022/03/14 01:27:20;;;;;;;17.25;12.20;;;9.90;60.30;;;;;;4918305;29;20028;-44
2022/03/14 01:29:46;;;;;;;30.65;17.45;;;9.90;60.10;;;;;;4918756;29;20517;-45
2022/03/14 01:32:11;;;;;;;125.00;74.63;;;10.00;61.40;;;;;;4918935;29;20309;-46
2022/03/14 01:34:37;;;;;;;32.10;18.95;;;10.00;62.70;;;;;;4918751;29;20103;-45
2022/03/14 01:37:04;;;;;;;18.17;12.23;;;9.90;62.60;;;;;;4918371;29;20480;-46
2022/03/14 01:39:29;;;;;;;18.50;12.45;;;9.80;63.90;;;;;;4917982;29;20024;-45
2022/03/14 01:41:56;;;;;;;18.58;12.32;;;9.90;62.20;;;;;;4918666;29;20075;-45
2022/03/14 01:44:21;;;;;;;20.63;12.57;;;10.00;61.90;;;;;;4919120;29;20028;-45
2022/03/14 01:46:47;;;;;;;17.95;12.20;;;9.80;62.00;;;;;;4918396;29;20525;-47
2022/03/14 01:49:13;;;;;;;18.75;12.55;;;9.80;62.90;;;;;;4919072;29;20020;-44
2022/03/14 01:51:40;;;;;;;18.60;12.13;;;9.70;63.60;;;;;;4918431;29;20165;-47
2022/03/14 01:54:07;;;;;;;19.00;13.07;;;9.60;64.70;;;;;;4918312;29;20024;-45
2022/03/14 01:56:34;;;;;;;21.27;13.32;;;9.40;65.30;;;;;;4918575;29;20035;-45
2022/03/14 01:59:00;;;;;;;20.95;12.57;;;9.30;66.20;;;;;;4918139;29;20028;-51
2022/03/14 02:01:26;;;;;;;21.10;12.20;;;9.30;66.20;;;;;;4918264;29;20040;-45
2022/03/14 02:03:51;;;;;;;22.35;12.30;;;9.20;65.90;;;;;;4916839;29;20028;-46
2022/03/14 02:06:18;;;;;;;21.48;11.88;;;9.30;66.10;;;;;;4917887;29;20039;-45
2022/03/14 02:08:44;;;;;;;17.50;12.75;;;9.40;66.80;;;;;;4918579;29;20032;-47
2022/03/14 02:11:10;;;;;;;16.90;11.27;;;9.50;71.80;;;;;;4918144;29;20550;-48
2022/03/14 02:13:35;;;;;;;16.80;11.63;;;9.60;72.00;;;;;;4918052;29;20260;-42
2022/03/14 02:16:01;;;;;;;19.23;12.10;;;9.70;74.40;;;;;;4917702;29;20052;-49
2022/03/14 02:18:27;;;;;;;14.82;10.18;;;9.70;75.60;;;;;;4917672;29;20028;-47
2022/03/14 02:20:52;;;;;;;18.83;12.10;;;9.80;77.90;;;;;;4918077;29;20042;-46
2022/03/14 02:23:18;;;;;;;15.15;9.52;;;9.90;81.70;;;;;;4918008;29;20115;-47
2022/03/14 02:25:49;;;;;;;12.13;8.68;;;9.90;86.80;;;;;;4916770;29;20119;-42
2022/03/14 02:28:15;;;;;;;12.75;9.13;;;10.00;90.60;;;;;;4917298;29;20083;-45
2022/03/14 02:30:42;;;;;;;11.55;8.02;;;10.10;92.80;;;;;;4917650;29;20031;-47
2022/03/14 02:33:08;;;;;;;14.85;7.72;;;10.20;94.20;;;;;;4917418;29;20031;-49
2022/03/14 02:35:39;;;;;;;8.13;6.97;;;10.20;95.70;;;;;;4917331;29;20377;-48
2022/03/14 02:38:07;;;;;;;8.02;6.78;;;10.20;97.10;;;;;;4916440;29;20024;-47
2022/03/14 02:40:32;;;;;;;6.68;6.07;;;10.30;98.50;;;;;;4916937;29;20028;-43
2022/03/14 02:42:58;;;;;;;6.82;5.53;;;10.30;99.50;;;;;;4917577;29;20567;-45
2022/03/14 02:45:23;;;;;;;6.57;5.53;;;10.30;99.90;;;;;;4917081;29;21629;-45
2022/03/14 02:47:49;;;;;;;6.55;5.15;;;10.30;99.90;;;;;;4918670;23;1033531;-46
2022/03/14 02:50:15;;;;;;;8.60;5.18;;;10.30;99.90;;;;;;4936150;29;20394;-45
2022/03/14 02:52:41;;;;;;;5.90;5.10;;;10.30;99.90;;;;;;4936450;29;20035;-52
2022/03/14 02:55:07;;;;;;;5.53;5.03;;;10.30;99.90;;;;;;4936056;29;20111;-50
2022/03/14 02:57:33;;;;;;;5.47;4.85;;;10.30;99.90;;;;;;4922653;29;20108;-48
2022/03/14 02:59:58;;;;;;;7.13;4.70;;;10.30;99.90;;;;;;4917039;29;20068;-41
2022/03/14 03:02:25;;;;;;;5.18;4.63;;;10.30;99.90;;;;;;4915653;29;20038;-46
2022/03/14 03:04:51;;;;;;;4.68;4.10;;;10.20;99.90;;;;;;4916912;29;20516;-44
2022/03/14 03:07:19;;;;;;;4.25;3.75;;;10.20;99.90;;;;;;4916403;29;20509;-41
2022/03/14 03:09:45;;;;;;;4.32;3.35;;;10.10;99.90;;;;;;4915523;29;20032;-47
2022/03/14 03:12:14;;;;;;;3.05;2.78;;;10.00;99.90;;;;;;4916837;29;20020;-49
2022/03/14 03:14:41;;;;;;;4.18;3.00;;;10.00;99.90;;;;;;4915640;29;20028;-44
2022/03/14 03:17:06;;;;;;;3.05;2.78;;;10.00;99.90;;;;;;4916589;29;20088;-45
2022/03/14 03:19:33;;;;;;;3.40;2.70;;;10.00;99.90;;;;;;4916292;29;20475;-46
2022/03/14 03:21:58;;;;;;;3.58;2.80;;;9.90;99.90;;;;;;4916585;29;20032;-46
2022/03/14 03:24:24;;;;;;;2.75;2.55;;;9.80;99.90;;;;;;4916513;29;20024;-45
2022/03/14 03:26:50;;;;;;;3.55;2.83;;;9.70;99.90;;;;;;4916477;29;20411;-41
2022/03/14 03:29:15;;;;;;;6.05;2.92;;;9.70;99.90;;;;;;4916328;29;20099;-47
2022/03/14 03:31:41;;;;;;;2.42;2.22;;;9.60;99.90;;;;;;4916405;29;20028;-49
2022/03/14 03:34:06;;;;;;;2.95;2.75;;;9.60;99.90;;;;;;4916458;29;20050;-45
2022/03/14 03:36:32;;;;;;;3.35;3.08;;;9.50;99.90;;;;;;4915835;29;20499;-44
2022/03/14 03:38:58;;;;;;;2.83;2.00;;;9.50;99.90;;;;;;4916052;29;20024;-45
2022/03/14 03:41:24;;;;;;;2.60;2.33;;;9.50;99.90;;;;;;4915875;29;20060;-40
2022/03/14 03:43:50;;;;;;;3.85;2.38;;;9.50;99.90;;;;;;4916277;29;20107;-46
2022/03/14 03:46:15;;;;;;;2.70;2.50;;;9.50;99.90;;;;;;4915878;29;20492;-47
2022/03/14 03:48:41;;;;;;;2.85;2.55;;;9.60;99.90;;;;;;4915836;29;20039;-46
2022/03/14 03:51:06;;;;;;;2.42;2.22;;;9.50;99.90;;;;;;4916434;29;20087;-44
2022/03/14 03:53:32;;;;;;;2.72;2.53;;;9.40;99.90;;;;;;4914665;29;20034;-42
2022/03/14 03:55:57;;;;;;;2.90;2.08;;;9.50;99.90;;;;;;4915895;29;20031;-46
2022/03/14 03:58:23;;;;;;;2.40;2.20;;;9.40;99.90;;;;;;4916083;29;20080;-45
2022/03/14 04:00:49;;;;;;;5.95;3.55;;;9.30;99.90;;;;;;4915841;29;20020;-44
2022/03/14 04:03:15;;;;;;;2.00;1.90;;;9.30;99.90;;;;;;4914572;29;20024;-43
2022/03/14 04:05:41;;;;;;;5.65;2.20;;;9.30;99.90;;;;;;4915762;29;20032;-49
2022/03/14 04:08:10;;;;;;;2.17;2.08;;;9.20;99.90;;;;;;4915473;29;20475;-49
2022/03/14 04:10:35;;;;;;;4.97;2.40;;;9.30;99.90;;;;;;4915846;29;20028;-48
2022/03/14 04:13:03;;;;;;;3.45;2.35;;;9.20;99.90;;;;;;4916126;29;20531;-43
2022/03/14 04:15:29;;;;;;;4.20;2.63;;;9.20;99.90;;;;;;4915655;29;20034;-44
2022/03/14 04:17:59;;;;;;;5.22;2.50;;;9.20;99.90;;;;;;4915140;29;20475;-44
2022/03/14 04:20:25;;;;;;;3.67;2.30;;;9.20;99.90;;;;;;4915657;29;20028;-45
2022/03/14 04:22:51;;;;;;;2.95;2.50;;;9.20;99.90;;;;;;4915807;29;20029;-47
2022/03/14 04:25:16;;;;;;;4.53;2.78;;;9.10;99.90;;;;;;4915551;29;20019;-47
2022/03/14 04:27:42;;;;;;;3.17;2.47;;;9.10;99.90;;;;;;4915043;29;20532;-44
2022/03/14 04:30:09;;;;;;;2.65;2.45;;;9.10;99.90;;;;;;4915433;29;20091;-41
2022/03/14 04:32:34;;;;;;;7.50;3.30;;;9.00;99.90;;;;;;4914225;29;20115;-46
2022/03/14 04:35:00;;;;;;;2.20;2.00;;;9.00;99.90;;;;;;4914213;29;20130;-48
2022/03/14 04:37:25;;;;;;;5.97;2.75;;;9.00;99.90;;;;;;4915176;29;20032;-44
2022/03/14 04:39:51;;;;;;;3.47;2.58;;;9.00;99.90;;;;;;4914966;29;20024;-46
2022/03/14 04:42:20;;;;;;;4.85;2.60;;;9.00;99.90;;;;;;4915413;29;20032;-41
2022/03/14 04:44:49;;;;;;;4.18;2.72;;;9.00;99.90;;;;;;4914442;29;20507;-45
2022/03/14 04:47:16;;;;;;;2.38;2.25;;;9.00;99.90;;;;;;4915169;29;20130;-49
2022/03/14 04:49:42;;;;;;;3.70;2.67;;;9.00;99.90;;;;;;4919497;29;20594;-48
2022/03/14 04:52:09;;;;;;;4.15;2.30;;;9.00;99.90;;;;;;4919383;29;20503;-41
2022/03/14 04:54:34;;;;;;;4.57;2.58;;;9.00;99.90;;;;;;4917891;29;20040;-50
2022/03/14 04:57:00;;;;;;;2.55;2.35;;;9.00;99.90;;;;;;4918946;29;20032;-48
2022/03/14 04:59:26;;;;;;;4.28;2.40;;;8.90;99.90;;;;;;4918916;29;20111;-47
2022/03/14 05:01:51;;;;;;;3.72;2.35;;;9.00;99.90;;;;;;4919172;29;20405;-47
2022/03/14 05:04:18;;;;;;;3.08;2.67;;;8.90;99.90;;;;;;4917730;29;20044;-47
2022/03/14 05:06:44;;;;;;;3.70;2.30;;;8.90;99.90;;;;;;4918940;29;20028;-47
2022/03/14 05:09:10;;;;;;;3.33;2.65;;;8.90;99.90;;;;;;4918849;29;20032;-46
2022/03/14 05:11:38;;;;;;;5.35;2.72;;;8.90;99.90;;;;;;4917707;29;20025;-50
2022/03/14 05:14:08;;;;;;;2.88;2.53;;;8.90;99.90;;;;;;4918802;29;20376;-50
2022/03/14 05:16:34;;;;;;;3.70;3.03;;;8.90;99.90;;;;;;4918643;29;20016;-47
2022/03/14 05:18:59;;;;;;;3.30;3.00;;;8.80;99.90;;;;;;4918602;29;20103;-44
2022/03/14 05:21:25;;;;;;;4.28;2.78;;;8.90;99.90;;;;;;4918818;29;20028;-48
2022/03/14 05:23:51;;;;;;;3.28;2.97;;;8.90;99.90;;;;;;4918784;29;20028;-43
2022/03/14 05:26:16;;;;;;;4.00;3.13;;;8.90;99.90;;;;;;4918595;29;20496;-51
2022/03/14 05:28:42;;;;;;;3.72;3.20;;;8.80;99.90;;;;;;4918780;29;20036;-47
2022/03/14 05:31:07;;;;;;;6.43;3.60;;;8.80;99.90;;;;;;4919015;29;20036;-44
2022/03/14 05:33:33;;;;;;;4.53;3.55;;;8.80;99.90;;;;;;4918777;29;20075;-49
2022/03/14 05:35:58;;;;;;;4.22;3.60;;;8.80;99.90;;;;;;4918923;29;20156;-44
2022/03/14 05:38:24;;;;;;;5.40;2.83;;;8.70;99.90;;;;;;4918429;29;20422;-47
2022/03/14 05:40:51;;;;;;;6.63;3.53;;;8.70;99.90;;;;;;4918104;29;20028;-46
2022/03/14 05:43:17;;;;;;;4.38;3.97;;;8.70;99.90;;;;;;4917171;29;20032;-41
2022/03/14 05:45:43;;;;;;;4.07;3.50;;;8.80;99.90;;;;;;4917103;29;20040;-42
2022/03/14 05:48:08;;;;;;;4.05;3.72;;;8.70;99.90;;;;;;4915251;29;20061;-43
2022/03/14 05:50:34;;;;;;;3.97;3.67;;;8.70;99.90;;;;;;4917813;29;20043;-48
2022/03/14 05:53:01;;;;;;;4.00;3.70;;;8.70;99.90;;;;;;4917271;29;20420;-46
2022/03/14 05:55:27;;;;;;;3.72;3.42;;;8.80;99.90;;;;;;4917143;29;20016;-47
2022/03/14 05:57:53;;;;;;;4.65;2.75;;;8.80;99.90;;;;;;4916614;29;20107;-45
2022/03/14 06:00:22;;;;;;;3.50;3.20;;;8.70;99.90;;;;;;4916996;29;20055;-46
2022/03/14 06:02:48;;;;;;;3.30;3.00;;;8.70;99.90;;;;;;4916878;29;20032;-52
2022/03/14 06:05:15;;;;;;;3.22;2.92;;;8.80;99.90;;;;;;4916743;29;20032;-47
2022/03/14 06:07:40;;;;;;;3.35;3.03;;;8.80;99.90;;;;;;4917408;29;20098;-48
2022/03/14 06:10:07;;;;;;;3.83;3.50;;;8.80;99.90;;;;;;4918104;29;20495;-45
2022/03/14 06:12:33;;;;;;;3.70;3.33;;;8.80;99.90;;;;;;4918096;29;20064;-48
2022/03/14 06:15:00;;;;;;;4.03;3.35;;;8.80;99.90;;;;;;4917800;29;20060;-48
2022/03/14 06:17:26;;;;;;;5.05;4.03;;;8.80;99.90;;;;;;4917599;29;20468;-46
2022/03/14 06:19:52;;;;;;;6.05;3.95;;;8.80;99.90;;;;;;4918017;29;20107;-47
2022/03/14 06:22:19;;;;;;;4.28;3.63;;;8.80;99.90;;;;;;4918106;29;20505;-48
2022/03/14 06:24:47;;;;;;;4.10;3.70;;;8.80;99.90;;;;;;4918071;29;20107;-50
2022/03/14 06:27:15;;;;;;;6.00;4.35;;;8.80;99.90;;;;;;4917545;29;20024;-48
2022/03/14 06:29:40;;;;;;;4.70;4.28;;;8.70;99.90;;;;;;4917491;29;20516;-47
2022/03/14 06:32:06;;;;;;;4.55;4.07;;;8.70;99.90;;;;;;4917827;29;20107;-45
2022/03/14 06:34:32;;;;;;;4.80;4.40;;;8.70;99.90;;;;;;4918072;29;20119;-48
2022/03/14 06:36:57;;;;;;;5.03;4.53;;;8.60;99.90;;;;;;4917403;29;20035;-45
2022/03/14 06:39:23;;;;;;;5.05;4.60;;;8.70;99.90;;;;;;4916758;29;20016;-43
2022/03/14 06:41:48;;;;;;;5.60;5.00;;;8.80;99.90;;;;;;4917547;29;20125;-49
2022/03/14 06:44:14;;;;;;;5.05;4.50;;;8.80;99.90;;;;;;4917507;29;20036;-50
2022/03/14 06:46:40;;;;;;;5.75;5.10;;;8.70;99.90;;;;;;4917031;29;20046;-47
2022/03/14 06:49:06;;;;;;;4.93;4.53;;;8.80;99.90;;;;;;4915787;29;20559;-44
2022/03/14 06:51:32;;;;;;;6.65;4.40;;;8.80;99.90;;;;;;4917257;29;20059;-48
2022/03/14 06:53:58;;;;;;;6.47;4.43;;;8.80;99.90;;;;;;4917211;29;20068;-44
2022/03/14 06:56:24;;;;;;;6.95;4.32;;;8.80;99.90;;;;;;4917081;29;20032;-44
2022/03/14 06:58:50;;;;;;;6.43;5.10;;;8.80;99.90;;;;;;4916917;29;20020;-45
2022/03/14 07:01:15;;;;;;;6.93;4.53;;;8.80;99.90;;;;;;4917095;29;20020;-45
2022/03/14 07:03:41;;;;;;;10.00;4.25;;;8.80;99.90;;;;;;4917157;29;20028;-40
2022/03/14 07:06:06;;;;;;;6.78;3.95;;;8.70;99.90;;;;;;4916935;29;20403;-45
2022/03/14 07:08:32;;;;;;;5.55;3.90;;;8.70;99.90;;;;;;4916352;29;20024;-45
2022/03/14 07:10:57;;;;;;;8.15;4.55;;;8.70;99.90;;;;;;4916191;29;20102;-47
2022/03/14 07:13:23;;;;;;;13.27;5.22;;;8.70;99.90;;;;;;4916773;29;20062;-45
2022/03/14 07:15:48;;;;;;;5.18;4.10;;;8.70;99.90;;;;;;4916637;29;20036;-47
2022/03/14 07:18:15;;;;;;;5.60;4.40;;;8.70;99.90;;;;;;4916374;29;20476;-47
2022/03/14 07:20:41;;;;;;;5.47;4.38;;;8.80;99.90;;;;;;4916630;29;20048;-47
2022/03/14 07:23:07;;;;;;;6.38;4.38;;;8.70;99.90;;;;;;4916809;29;20032;-50
2022/03/14 07:25:37;;;;;;;8.00;4.28;;;8.80;99.90;;;;;;4916511;29;20024;-44
2022/03/14 07:28:09;;;;;;;8.43;5.03;;;8.90;99.90;;;;;;4916181;29;20025;-45
2022/03/14 07:30:36;;;;;;;6.68;4.43;;;8.90;99.90;;;;;;4916631;29;20377;-48
2022/03/14 07:33:02;;;;;;;10.07;4.82;;;8.90;99.90;;;;;;4916684;29;20095;-45
2022/03/14 07:35:29;;;;;;;5.70;3.90;;;9.00;99.90;;;;;;4916586;29;20042;-47
2022/03/14 07:37:55;;;;;;;10.20;4.60;;;9.00;99.90;;;;;;4915905;29;20153;-45
2022/03/14 07:40:21;;;;;;;6.78;3.67;;;9.00;99.90;;;;;;4916069;29;20486;-51
2022/03/14 07:42:48;;;;;;;7.20;4.18;;;9.00;99.90;;;;;;4916282;29;20251;-46
2022/03/14 07:45:16;;;;;;;10.85;3.95;;;8.90;99.90;;;;;;4916313;29;20036;-45
2022/03/14 07:47:43;;;;;;;9.15;4.20;;;8.80;99.90;;;;;;4916234;29;20044;-46
2022/03/14 07:50:11;;;;;;;7.13;4.30;;;8.90;99.90;;;;;;4916040;29;20038;-46
2022/03/14 07:52:37;;;;;;;12.30;4.20;;;8.90;99.90;;;;;;4916201;29;20036;-47
2022/03/14 07:55:04;;;;;;;7.95;3.72;;;8.90;99.90;;;;;;4916204;29;20055;-49
2022/03/14 07:57:31;;;;;;;10.82;4.82;;;9.00;99.90;;;;;;4915783;29;20423;-52
2022/03/14 08:00:00;;;;;;;10.18;4.65;;;9.00;99.90;;;;;;4916164;29;20124;-46
2022/03/14 08:02:26;;;;;;;9.35;5.00;;;9.00;99.90;;;;;;4915881;29;20025;-51
2022/03/14 08:04:52;;;;;;;11.70;4.85;;;9.00;99.90;;;;;;4916197;29;20035;-50
2022/03/14 08:07:18;;;;;;;16.50;5.20;;;9.10;99.90;;;;;;4915747;29;20040;-46
2022/03/14 08:09:43;;;;;;;8.68;5.57;;;9.10;99.90;;;;;;4915954;29;20028;-46
2022/03/14 08:12:11;;;;;;;8.27;5.15;;;9.20;99.90;;;;;;4916092;29;20032;-48
2022/03/14 08:14:36;;;;;;;11.13;5.10;;;9.20;99.90;;;;;;4915917;29;20038;-50
2022/03/14 08:17:02;;;;;;;8.80;6.05;;;9.30;99.90;;;;;;4915724;29;20483;-45
2022/03/14 08:19:28;;;;;;;8.80;5.35;;;9.40;99.90;;;;;;4915537;29;20058;-51
2022/03/14 08:21:56;;;;;;;9.60;5.10;;;9.50;99.90;;;;;;4915748;29;20024;-46
2022/03/14 08:24:22;;;;;;;16.95;6.30;;;9.60;99.90;;;;;;4915832;29;20476;-45
2022/03/14 08:26:48;;;;;;;8.45;5.57;;;9.70;99.90;;;;;;4915650;29;20091;-51
2022/03/14 08:29:14;;;;;;;16.70;5.80;;;9.80;99.90;;;;;;4915631;29;20503;-46
2022/03/14 08:31:39;;;;;;;11.38;6.82;;;9.80;99.90;;;;;;4915631;29;20107;-50
2022/03/14 08:34:06;;;;;;;16.65;6.13;;;9.80;99.90;;;;;;4915813;29;20524;-46
2022/03/14 08:36:33;;;;;;;9.77;5.80;;;9.80;99.90;;;;;;4915590;29;20036;-47
2022/03/14 08:38:58;;;;;;;9.55;6.57;;;9.80;99.90;;;;;;4915410;29;20024;-44
2022/03/14 08:41:24;;;;;;;17.67;7.10;;;9.80;99.90;;;;;;4915591;29;20444;-46
2022/03/14 08:43:49;;;;;;;9.02;6.10;;;9.90;99.90;;;;;;4915575;29;20036;-46
2022/03/14 08:48:48;;;;;;;13.35;6.93;;;10.10;99.90;;;;;;4954632;23;20423;-46
2022/03/14 08:51:14;;;;;;;12.50;5.88;;;10.20;99.90;;;;;;4934646;29;20030;-47
2022/03/14 08:53:40;;;;;;;11.45;6.72;;;10.50;99.90;;;;;;4934205;29;20232;-46
2022/03/14 08:56:05;;;;;;;12.80;5.47;;;10.60;99.90;;;;;;4934276;29;20103;-45
2022/03/14 08:58:32;;;;;;;9.07;5.40;;;10.80;99.90;;;;;;4917063;29;20028;-46
2022/03/14 09:00:59;;;;;;;13.85;5.63;;;10.80;99.90;;;;;;4915177;29;20460;-47
2022/03/14 09:03:26;;;;;;;8.23;5.30;;;10.90;99.90;;;;;;4915198;29;20116;-42
2022/03/14 09:05:54;;;;;;;11.55;5.93;;;10.80;99.90;;;;;;4914947;29;20020;-47
2022/03/14 09:08:19;;;;;;;16.25;6.20;;;10.70;99.90;;;;;;4914691;29;20016;-47
2022/03/14 09:10:46;;;;;;;16.15;8.07;;;10.50;99.90;;;;;;4915236;29;20042;-45
2022/03/14 09:13:11;;;;;;;9.90;5.50;;;10.40;99.90;;;;;;4914966;29;20107;-42
2022/03/14 09:15:37;;;;;;;11.88;6.68;;;10.30;99.90;;;;;;4915065;29;20107;-45
2022/03/14 09:18:03;;;;;;;13.70;5.47;;;10.30;99.90;;;;;;4914671;29;20032;-46
2022/03/14 09:20:29;;;;;;;19.88;6.15;;;10.40;99.90;;;;;;4915021;29;20420;-46
2022/03/14 09:22:56;;;;;;;16.63;6.20;;;10.40;99.90;;;;;;4914969;29;20024;-47
2022/03/14 09:25:22;;;;;;;11.90;6.22;;;10.50;99.90;;;;;;4914867;29;20076;-42
2022/03/14 09:27:49;;;;;;;12.75;5.50;;;10.60;99.90;;;;;;4914563;29;20024;-48
2022/03/14 09:30:16;;;;;;;9.52;6.10;;;10.80;99.90;;;;;;4913686;29;20032;-50
2022/03/14 09:32:42;;;;;;;8.13;4.38;;;11.20;99.90;;;;;;4914810;29;20392;-48
2022/03/14 09:35:09;;;;;;;14.52;4.60;;;11.60;99.90;;;;;;4917993;29;20036;-41
2022/03/14 09:37:39;;;;;;;6.53;4.18;;;11.70;99.90;;;;;;4917920;29;20411;-47
2022/03/14 09:40:06;;;;;;;8.10;4.68;;;12.30;99.90;;;;;;4917654;29;20028;-45
2022/03/14 09:42:36;;;;;;;12.75;4.18;;;13.30;99.90;;;;;;4918440;29;20028;-43
2022/03/14 09:45:04;;;;;;;5.53;4.03;;;13.80;99.90;;;;;;4918770;29;20048;-48
2022/03/14 09:47:30;;;;;;;8.77;3.75;;;13.80;99.90;;;;;;4918227;29;20492;-44
2022/03/14 09:49:58;;;;;;;5.97;3.90;;;13.30;99.90;;;;;;4917969;29;20048;-47
2022/03/14 09:52:25;;;;;;;4.30;3.90;;;13.30;99.90;;;;;;4918089;29;20032;-50
2022/03/14 09:54:51;;;;;;;5.35;3.53;;;13.20;99.90;;;;;;4917826;29;20032;-45
2022/03/14 09:57:16;;;;;;;7.57;3.60;;;13.10;99.90;;;;;;4917514;29;20480;-41
2022/03/14 09:59:42;;;;;;;7.13;3.22;;;12.80;99.90;;;;;;4917848;29;20112;-46
2022/03/14 10:02:12;;;;;;;6.88;3.10;;;12.20;99.90;;;;;;4918050;29;20032;-45
2022/03/14 10:04:38;;;;;;;7.03;3.10;;;12.00;99.90;;;;;;4917868;29;20379;-47
2022/03/14 10:07:06;;;;;;;8.23;3.10;;;12.00;99.90;;;;;;4917407;29;20480;-47
2022/03/14 10:09:36;;;;;;;6.93;3.30;;;12.00;99.90;;;;;;4916222;29;20064;-41
2022/03/14 10:12:04;;;;;;;5.50;3.35;;;11.80;99.90;;;;;;4917780;29;20087;-53
2022/03/14 10:14:29;;;;;;;3.92;3.28;;;11.70;99.90;;;;;;4917715;29;20028;-45
2022/03/14 10:16:56;;;;;;;6.22;3.78;;;11.70;99.90;;;;;;4917420;29;20027;-47
2022/03/14 10:19:34;;;;;;;11.05;4.18;;;11.80;99.90;;;;;;4917499;29;20453;-46
2022/03/14 10:22:18;;;;;;;8.10;3.20;;;12.00;99.90;;;;;;4917504;29;20021;-48
2022/03/14 10:24:44;;;;;;;8.95;2.78;;;12.10;99.90;;;;;;4917558;29;20027;-45
2022/03/14 10:27:12;;;;;;;3.58;2.58;;;12.30;99.90;;;;;;4917740;29;20028;-47
2022/03/14 10:29:38;;;;;;;5.18;3.30;;;12.40;99.90;;;;;;4917871;29;20104;-42
2022/03/14 10:32:30;;;;;;;6.60;3.63;;;12.50;99.90;;;;;;4917592;29;20032;-44
2022/03/14 10:34:58;;;;;;;7.25;3.97;;;12.40;99.90;;;;;;4917733;29;20055;-47
2022/03/14 10:37:31;;;;;;;8.50;4.50;;;12.30;99.90;;;;;;4917307;29;20028;-48
2022/03/14 10:39:58;;;;;;;8.57;3.92;;;12.70;99.90;;;;;;4917588;29;20476;-46
2022/03/14 10:42:23;;;;;;;6.95;3.67;;;13.10;99.90;;;;;;4917690;29;20298;-41
2022/03/14 10:44:49;;;;;;;9.68;4.10;;;13.40;99.90;;;;;;4916600;29;20047;-43
2022/03/14 10:47:16;;;;;;;5.07;3.97;;;13.30;99.90;;;;;;4917030;29;20048;-44
2022/03/14 10:49:43;;;;;;;6.03;3.92;;;13.20;99.90;;;;;;4917895;29;20044;-48
2022/03/14 10:52:10;;;;;;;7.40;3.63;;;12.90;99.90;;;;;;4916323;29;20507;-44
2022/03/14 10:54:37;;;;;;;7.95;3.17;;;12.70;99.90;;;;;;4916851;29;20119;-47
2022/03/14 10:57:08;;;;;;;7.07;3.50;;;12.50;99.90;;;;;;4916949;29;20028;-47
2022/03/14 10:59:51;;;;;;;6.22;3.70;;;12.20;99.90;;;;;;4916938;29;20493;-48
2022/03/14 11:02:22;;;;;;;6.63;4.90;;;12.10;99.90;;;;;;4916792;29;20509;-48
2022/03/14 11:04:52;;;;;;;8.48;6.50;;;11.90;99.90;;;;;;4917042;29;20373;-45
2022/03/14 11:07:19;;;;;;;6.70;4.13;;;11.90;99.90;;;;;;4917294;29;20028;-46
2022/03/14 11:09:49;;;;;;;7.60;3.80;;;12.00;99.90;;;;;;4917302;29;20042;-47
2022/03/14 11:12:22;;;;;;;10.10;4.18;;;12.00;99.90;;;;;;4917328;29;20043;-44
2022/03/14 11:15:00;;;;;;;8.65;4.15;;;12.20;99.90;;;;;;4915634;29;20377;-46
2022/03/14 11:17:28;;;;;;;5.20;4.07;;;12.40;99.90;;;;;;4916413;29;20047;-43
2022/03/14 11:19:55;;;;;;;5.35;3.08;;;12.30;99.90;;;;;;4916762;29;20492;-43
2022/03/14 11:22:22;;;;;;;6.68;3.50;;;12.40;99.90;;;;;;4916526;29;20428;-46
2022/03/14 11:24:50;;;;;;;4.95;4.35;;;12.40;99.90;;;;;;4916417;29;20024;-45
2022/03/14 11:27:32;;;;;;;12.40;4.10;;;12.50;99.90;;;;;;4916177;29;20111;-41
2022/03/14 11:30:06;;;;;;;4.93;3.47;;;12.30;99.80;;;;;;4896433;29;20032;-46
2022/03/14 11:32:33;;;;;;;7.18;4.32;;;12.20;99.90;;;;;;4895662;29;20108;-45
2022/03/14 11:35:01;;;;;;;8.13;3.97;;;12.10;99.90;;;;;;4897292;29;20104;-48
2022/03/14 11:37:29;;;;;;;6.50;4.13;;;12.00;99.90;;;;;;4896828;29;20025;-48
2022/03/14 11:40:00;;;;;;;6.10;3.80;;;12.00;99.90;;;;;;4897437;29;20037;-42
2022/03/14 11:42:26;;;;;;;4.85;3.40;;;12.00;99.90;;;;;;4896316;29;20035;-42
2022/03/14 11:44:52;;;;;;;5.85;3.90;;;12.00;99.90;;;;;;4897304;29;20111;-43
2022/03/14 11:47:20;;;;;;;9.45;4.25;;;12.10;99.90;;;;;;4896861;29;20127;-45
2022/03/14 11:49:46;;;;;;;6.78;2.83;;;12.20;99.90;;;;;;4897444;29;20056;-46
2022/03/14 11:52:20;;;;;;;5.15;4.07;;;12.20;99.90;;;;;;4897205;29;20522;-42
2022/03/14 11:54:51;;;;;;;4.40;2.63;;;12.20;99.90;;;;;;4896957;29;20100;-48
2022/03/14 11:57:36;;;;;;;5.50;2.47;;;12.30;99.90;;;;;;4896466;29;20036;-44
2022/03/14 12:00:27;;;;;;;7.43;2.65;;;12.40;99.90;;;;;;4897290;29;20107;-46
2022/03/14 12:02:57;;;;;;;5.05;3.30;;;12.50;99.80;;;;;;4896952;29;20024;-44
2022/03/14 12:05:31;;;;;;;3.83;2.75;;;12.40;99.40;;;;;;4897124;29;20133;-44
2022/03/14 12:08:00;;;;;;;5.78;3.20;;;12.40;99.50;;;;;;4895793;29;20069;-43
2022/03/14 12:10:31;;;;;;;6.30;3.35;;;12.20;99.40;;;;;;4896670;29;20035;-46
2022/03/14 12:13:01;;;;;;;4.57;2.78;;;12.20;99.50;;;;;;4896708;29;20056;-46
2022/03/14 12:15:41;;;;;;;3.83;2.80;;;12.20;99.90;;;;;;4897383;29;20618;-43
2022/03/14 12:18:25;;;;;;;4.38;2.97;;;12.20;99.90;;;;;;4897066;29;20029;-47
2022/03/14 12:21:03;;;;;;;4.93;2.70;;;12.20;99.90;;;;;;4896604;29;20025;-48
2022/03/14 12:23:31;;;;;;;7.20;3.13;;;12.30;99.90;;;;;;4896597;29;20088;-49
2022/03/14 12:25:59;;;;;;;5.65;3.00;;;12.30;99.90;;;;;;4896569;29;20103;-46
2022/03/14 12:28:36;;;;;;;5.05;2.92;;;12.30;99.90;;;;;;4895964;29;20043;-45
2022/03/14 12:31:04;;;;;;;4.68;2.85;;;12.30;99.70;;;;;;4896861;29;20032;-47
2022/03/14 12:33:35;;;;;;;4.00;2.67;;;12.40;99.90;;;;;;4896634;29;20033;-44
2022/03/14 12:36:19;;;;;;;4.00;2.92;;;12.40;99.70;;;;;;4896308;29;20043;-46
2022/03/14 12:39:08;;;;;;;3.85;2.97;;;12.40;99.80;;;;;;4894872;29;20032;-45
2022/03/14 12:41:41;;;;;;;2.72;2.17;;;12.50;99.90;;;;;;4896140;29;20104;-43
2022/03/14 12:44:18;;;;;;;4.55;2.38;;;12.60;99.30;;;;;;4896504;29;20031;-44
2022/03/14 12:46:49;;;;;;;2.40;1.80;;;12.70;98.40;;;;;;4896279;29;20163;-48
2022/03/14 12:49:25;;;;;;;1.95;1.80;;;12.70;98.20;;;;;;4896008;29;20056;-42
2022/03/14 12:52:29;;;;;;;;;;;12.70;98.30;;;;;;4896541;29;20115;-44